Time;durP1;ratioP1;P1;durP2;ratioP2;P2;SDS_P1;SDS_P2;PMS_P1;PMS_P2;Temp;Humidity;BMP_temperature;BMP_pressure;BME280_temperature;BME280_humidity;BME280_pressure;Samples;Min_cycle;Max_cycle;Signal;HPM_P1;HPM_P2
2022/04/21 00:00:48;;;;;;;6.82;4.30;;;6.40;99.90;;;;;;5072572;28;20055;-83
2022/04/21 00:03:14;;;;;;;11.38;4.47;;;6.40;99.90;;;;;;5072462;28;20025;-83
2022/04/21 00:05:40;;;;;;;8.15;3.90;;;6.40;99.90;;;;;;5072683;28;20041;-83
2022/04/21 00:08:06;;;;;;;5.75;3.90;;;6.40;99.90;;;;;;5060316;28;20488;-83
2022/04/21 00:10:38;;;;;;;8.55;4.00;;;6.30;99.90;;;;;;5052741;28;20032;-83
2022/04/21 00:13:05;;;;;;;10.57;3.70;;;6.30;99.90;;;;;;5055754;28;20059;-83
2022/04/21 00:15:31;;;;;;;7.78;3.97;;;6.20;99.90;;;;;;5072911;28;20025;-83
2022/04/21 00:17:59;;;;;;;8.93;4.85;;;6.20;99.90;;;;;;5060482;28;20029;-83
2022/04/21 00:20:24;;;;;;;5.50;3.90;;;6.10;99.90;;;;;;5056368;28;20061;-83
2022/04/21 00:25:37;;;;;;;5.07;3.17;;;6.10;99.90;;;;;;5052767;28;20436;-83
2022/04/21 00:28:05;;;;;;;11.18;4.55;;;6.00;99.90;;;;;;5067109;28;20464;-84
2022/04/21 00:30:31;;;;;;;14.25;4.75;;;6.00;99.90;;;;;;5063556;28;20017;-84
2022/04/21 00:32:56;;;;;;;8.30;4.38;;;5.90;99.90;;;;;;5070273;28;20045;-83
2022/04/21 00:35:24;;;;;;;10.25;4.53;;;5.90;99.90;;;;;;5072093;28;20025;-83
2022/04/21 00:37:57;;;;;;;7.50;4.00;;;5.90;99.90;;;;;;5072255;28;20035;-84
2022/04/21 00:40:29;;;;;;;9.73;3.60;;;5.90;99.90;;;;;;5069032;28;20491;-83
2022/04/21 00:42:55;;;;;;;14.23;4.70;;;5.90;99.90;;;;;;5071059;28;20409;-83
2022/04/21 00:45:33;;;;;;;11.15;4.00;;;5.90;99.90;;;;;;5072266;28;20094;-83
2022/04/21 00:48:02;;;;;;;10.80;3.80;;;6.00;99.90;;;;;;5072276;28;20380;-83
2022/04/21 00:50:45;;;;;;;7.20;4.20;;;5.90;99.90;;;;;;5072393;28;20040;-83
2022/04/21 00:53:11;;;;;;;7.18;3.83;;;5.90;99.90;;;;;;5054230;28;20025;-83
2022/04/21 00:55:48;;;;;;;8.30;3.78;;;5.90;99.90;;;;;;5072276;28;20031;-83
2022/04/21 00:58:15;;;;;;;7.05;4.80;;;5.90;99.90;;;;;;5071414;28;20032;-83
2022/04/21 01:00:40;;;;;;;7.28;4.32;;;5.80;99.90;;;;;;5054135;28;20447;-83
2022/04/21 01:03:06;;;;;;;14.45;5.38;;;5.90;99.90;;;;;;5050377;28;20057;-83
2022/04/21 01:05:33;;;;;;;5.70;4.10;;;5.90;99.90;;;;;;5065471;28;20027;-83
2022/04/21 01:08:06;;;;;;;8.50;4.22;;;6.00;99.90;;;;;;5071956;28;20465;-83
2022/04/21 01:10:42;;;;;;;10.68;4.72;;;5.90;99.90;;;;;;5072039;28;20037;-83
2022/04/21 01:13:09;;;;;;;12.05;5.38;;;5.90;99.90;;;;;;5071746;28;20039;-83
2022/04/21 01:15:42;;;;;;;7.53;4.43;;;6.00;99.90;;;;;;5053801;28;20029;-83
2022/04/21 01:18:09;;;;;;;5.70;4.22;;;6.00;99.90;;;;;;5071481;28;20421;-83
2022/04/21 01:20:45;;;;;;;9.43;4.70;;;6.00;99.90;;;;;;5071794;28;20455;-83
2022/04/21 01:23:11;;;;;;;6.07;4.20;;;6.00;99.90;;;;;;5055555;28;20024;-83
2022/04/21 01:25:43;;;;;;;6.60;4.65;;;6.00;99.90;;;;;;5071770;28;20021;-83
2022/04/21 01:28:12;;;;;;;7.05;4.78;;;6.00;99.90;;;;;;5071297;28;20090;-83
2022/04/21 01:30:44;;;;;;;9.05;4.18;;;6.00;99.90;;;;;;5074438;28;20035;-82
2022/04/21 01:33:10;;;;;;;7.30;4.30;;;6.00;99.90;;;;;;5041319;28;20086;-83
2022/04/21 01:35:37;;;;;;;11.75;4.30;;;6.10;99.90;;;;;;5067060;28;20070;-83
2022/04/21 01:41:11;;;;;;;10.18;4.53;;;6.20;99.90;;;;;;5067114;28;20082;-83
2022/04/21 01:43:38;;;;;;;8.30;3.95;;;6.30;99.90;;;;;;5071259;28;20017;-83
2022/04/21 01:46:07;;;;;;;8.45;4.63;;;6.30;99.90;;;;;;5075274;28;20361;-83
2022/04/21 01:48:32;;;;;;;8.75;4.40;;;6.40;99.90;;;;;;5074734;28;20435;-83
2022/04/21 01:50:58;;;;;;;5.25;4.22;;;6.50;99.90;;;;;;5056724;28;20020;-83
2022/04/21 01:53:24;;;;;;;10.45;4.43;;;6.50;99.90;;;;;;5074884;28;20047;-83
2022/04/21 01:55:55;;;;;;;7.05;3.92;;;6.50;99.90;;;;;;5075084;28;20036;-83
2022/04/21 01:58:21;;;;;;;14.27;4.63;;;6.60;99.90;;;;;;5074624;28;20025;-83
2022/04/21 02:00:47;;;;;;;8.32;4.45;;;6.60;99.90;;;;;;5075515;28;20158;-83
2022/04/21 02:03:12;;;;;;;7.65;4.35;;;6.70;99.90;;;;;;5046370;28;20499;-83
2022/04/21 02:05:40;;;;;;;6.43;4.07;;;6.70;99.90;;;;;;5069317;28;20465;-83
2022/04/21 02:08:07;;;;;;;5.68;4.07;;;6.70;99.90;;;;;;5069993;28;20154;-83
2022/04/21 02:10:35;;;;;;;9.70;4.25;;;6.70;99.90;;;;;;5074900;28;20021;-83
2022/04/21 02:13:00;;;;;;;7.95;4.05;;;6.80;99.90;;;;;;5056256;28;20020;-83
2022/04/21 02:15:29;;;;;;;12.65;4.15;;;6.70;99.90;;;;;;5074982;28;20387;-83
2022/04/21 02:17:54;;;;;;;9.40;4.70;;;6.70;99.90;;;;;;5055075;28;20021;-83
2022/04/21 02:20:20;;;;;;;5.25;4.18;;;6.80;99.90;;;;;;5073042;28;20052;-83
2022/04/21 02:22:48;;;;;;;5.00;3.75;;;6.80;99.90;;;;;;5074332;28;20048;-83
2022/04/21 02:25:15;;;;;;;6.78;4.72;;;6.80;99.90;;;;;;5074393;28;20040;-83
2022/04/21 02:27:48;;;;;;;11.43;4.70;;;6.70;99.90;;;;;;5073663;28;20480;-83
2022/04/21 02:30:15;;;;;;;6.93;3.55;;;6.80;99.90;;;;;;5058306;28;20025;-83
2022/04/21 02:32:41;;;;;;;10.80;4.93;;;6.70;99.90;;;;;;5064002;28;20450;-83
2022/04/21 02:35:09;;;;;;;10.90;4.78;;;6.70;99.90;;;;;;5058554;28;20017;-83
2022/04/21 02:37:39;;;;;;;7.97;4.53;;;6.70;99.90;;;;;;5074355;28;20028;-83
2022/04/21 02:40:12;;;;;;;5.38;4.05;;;6.70;99.90;;;;;;5074115;28;20380;-83
2022/04/21 02:42:38;;;;;;;10.00;3.92;;;6.70;99.90;;;;;;5060517;28;20083;-83
2022/04/21 02:45:18;;;;;;;11.00;4.35;;;6.70;99.90;;;;;;5057908;28;20419;-83
2022/04/21 02:47:46;;;;;;;7.25;3.63;;;6.70;99.90;;;;;;5050822;28;20029;-83
2022/04/21 02:50:14;;;;;;;7.00;3.75;;;6.70;99.90;;;;;;5074037;28;20472;-83
2022/04/21 02:52:44;;;;;;;10.23;4.32;;;6.70;99.90;;;;;;5056388;28;20086;-83
2022/04/21 02:57:58;;;;;;;7.27;4.53;;;6.70;99.90;;;;;;5074406;28;20034;-83
2022/04/21 03:00:23;;;;;;;8.13;4.45;;;6.70;99.90;;;;;;5052240;28;20029;-83
2022/04/21 03:02:49;;;;;;;7.20;4.53;;;6.70;99.90;;;;;;5073537;28;20047;-83
2022/04/21 03:05:15;;;;;;;7.28;3.97;;;6.70;99.90;;;;;;5073204;28;20498;-83
2022/04/21 03:07:45;;;;;;;10.50;4.00;;;6.70;99.90;;;;;;5055702;28;20051;-84
2022/04/21 03:10:11;;;;;;;9.88;4.78;;;6.70;99.90;;;;;;5074482;28;20077;-84
2022/04/21 03:12:44;;;;;;;6.78;4.35;;;6.70;99.90;;;;;;5072636;28;20028;-83
2022/04/21 03:15:11;;;;;;;4.97;3.65;;;6.70;99.90;;;;;;5072064;28;20031;-83
2022/04/21 03:17:37;;;;;;;7.65;3.72;;;6.80;99.90;;;;;;5073592;28;20551;-83
2022/04/21 03:20:03;;;;;;;6.32;3.75;;;6.80;99.90;;;;;;5065816;28;20116;-83
2022/04/21 03:25:15;;;;;;;7.65;4.25;;;6.80;99.90;;;;;;5073211;28;20069;-84
2022/04/21 03:27:50;;;;;;;7.80;4.32;;;6.80;99.90;;;;;;5071998;28;20051;-83
2022/04/21 03:30:15;;;;;;;9.63;4.35;;;6.80;99.90;;;;;;5040343;28;20051;-83
2022/04/21 03:32:41;;;;;;;6.57;4.95;;;6.80;99.90;;;;;;5051664;28;20072;-83
2022/04/21 03:35:07;;;;;;;8.93;4.72;;;6.80;99.90;;;;;;5041990;28;20025;-83
2022/04/21 03:37:33;;;;;;;9.95;5.22;;;6.80;99.90;;;;;;5053630;28;20116;-83
2022/04/21 03:40:09;;;;;;;11.43;4.10;;;6.80;99.90;;;;;;5033523;28;20094;-83
2022/04/21 03:42:34;;;;;;;11.13;4.47;;;6.80;99.90;;;;;;5032986;28;20017;-83
2022/04/21 03:45:03;;;;;;;12.98;4.60;;;6.70;99.90;;;;;;5052383;28;20032;-83
2022/04/21 03:47:29;;;;;;;7.72;4.13;;;6.70;99.90;;;;;;5051727;28;20885;-83
2022/04/21 03:49:56;;;;;;;8.77;4.38;;;6.70;99.90;;;;;;5053000;28;20024;-84
2022/04/21 03:52:22;;;;;;;9.32;4.95;;;6.60;99.90;;;;;;5051421;28;20036;-84
2022/04/21 03:54:50;;;;;;;6.88;4.55;;;6.60;99.90;;;;;;5053194;28;20021;-83
2022/04/21 03:57:15;;;;;;;10.77;4.40;;;6.60;99.90;;;;;;5051692;28;20104;-84
2022/04/21 03:59:41;;;;;;;13.25;4.72;;;6.50;99.90;;;;;;5051311;28;20107;-84
2022/04/21 04:02:06;;;;;;;8.43;4.63;;;6.60;99.90;;;;;;5052982;28;20424;-82
2022/04/21 04:04:37;;;;;;;9.57;5.50;;;6.60;99.90;;;;;;5051852;28;20492;-84
2022/04/21 04:12:36;;;;;;;10.35;4.70;;;6.60;99.90;;;;;;5051620;28;20079;-83
2022/04/21 04:15:04;;;;;;;9.95;5.40;;;6.60;99.90;;;;;;5052003;28;20109;-84
2022/04/21 04:17:30;;;;;;;10.00;4.93;;;6.60;99.90;;;;;;5050842;28;20060;-84
2022/04/21 04:19:56;;;;;;;8.48;4.85;;;6.60;99.90;;;;;;5052793;28;20068;-83
2022/04/21 04:22:21;;;;;;;8.35;4.55;;;6.60;99.90;;;;;;5051149;28;20549;-83
2022/04/21 04:24:53;;;;;;;6.85;4.95;;;6.50;99.90;;;;;;5052353;28;20112;-83
2022/04/21 04:27:20;;;;;;;11.65;4.60;;;6.60;99.90;;;;;;5051358;28;20021;-83
2022/04/21 04:29:45;;;;;;;6.65;5.00;;;6.60;99.90;;;;;;5050807;28;20066;-83
2022/04/21 04:32:11;;;;;;;10.15;5.78;;;6.60;99.90;;;;;;5057791;28;20074;-83
2022/04/21 04:34:36;;;;;;;14.48;5.63;;;6.60;99.90;;;;;;5054270;28;20024;-83
2022/04/21 04:37:02;;;;;;;8.35;5.28;;;6.70;99.90;;;;;;5054326;28;20029;-83
2022/04/21 04:39:28;;;;;;;12.27;4.88;;;6.70;99.90;;;;;;5053408;28;20063;-83
2022/04/21 04:44:38;;;;;;;19.70;4.95;;;6.70;99.90;;;;;;5071659;28;20101;-83
2022/04/21 04:47:04;;;;;;;10.05;4.30;;;6.70;99.90;;;;;;5072750;28;20095;-82
2022/04/21 04:49:30;;;;;;;19.80;5.13;;;6.70;99.90;;;;;;5071186;28;20033;-83
2022/04/21 04:51:55;;;;;;;6.88;4.45;;;6.70;99.90;;;;;;5071632;28;20387;-82
2022/04/21 04:54:21;;;;;;;8.00;4.45;;;6.80;99.90;;;;;;5071845;28;20043;-83
2022/04/21 04:56:48;;;;;;;5.40;3.70;;;6.70;99.90;;;;;;5069395;28;20107;-84
2022/04/21 04:59:14;;;;;;;8.38;4.38;;;6.80;99.90;;;;;;5064019;28;20176;-83
2022/04/21 05:01:43;;;;;;;10.50;4.63;;;6.80;99.90;;;;;;5052770;28;20056;-82
2022/04/21 05:04:11;;;;;;;9.90;4.65;;;6.80;99.90;;;;;;5070898;28;20368;-82
2022/04/21 05:06:38;;;;;;;7.80;5.10;;;6.90;99.90;;;;;;5059550;28;20019;-82
2022/04/21 05:09:05;;;;;;;7.68;4.85;;;6.90;99.90;;;;;;5075681;28;20054;-82
2022/04/21 05:11:32;;;;;;;9.40;4.47;;;6.90;99.90;;;;;;5074358;28;20028;-83
2022/04/21 05:13:57;;;;;;;7.57;3.92;;;6.90;99.90;;;;;;5075379;28;20060;-82
2022/04/21 05:16:24;;;;;;;10.15;4.65;;;6.90;99.90;;;;;;5074219;28;20562;-84
2022/04/21 05:18:50;;;;;;;13.55;4.70;;;6.90;99.90;;;;;;5056239;28;20436;-82
2022/04/21 05:21:17;;;;;;;9.10;4.30;;;6.90;99.90;;;;;;5074433;28;20031;-82
2022/04/21 05:23:46;;;;;;;6.80;4.47;;;6.90;99.90;;;;;;5073957;28;20032;-82
2022/04/21 05:26:18;;;;;;;12.45;5.40;;;6.90;99.90;;;;;;5059192;28;20376;-82
2022/04/21 05:28:44;;;;;;;9.73;4.93;;;7.00;99.90;;;;;;5068263;28;20029;-83
2022/04/21 05:31:10;;;;;;;11.15;4.82;;;7.10;99.90;;;;;;5066430;28;20365;-82
2022/04/21 05:33:37;;;;;;;11.35;5.03;;;7.00;99.90;;;;;;5074729;28;20395;-82
2022/04/21 05:36:04;;;;;;;8.93;5.30;;;7.00;99.90;;;;;;5056464;28;20025;-82
2022/04/21 05:38:30;;;;;;;11.90;5.15;;;7.00;99.90;;;;;;5074873;28;20090;-82
2022/04/21 05:40:57;;;;;;;10.98;4.95;;;6.90;99.90;;;;;;5075256;28;20024;-83
2022/04/21 05:43:39;;;;;;;11.18;4.93;;;6.90;99.90;;;;;;5075015;28;20025;-83
2022/04/21 05:46:05;;;;;;;8.32;5.18;;;6.90;99.90;;;;;;5074447;28;20028;-82
2022/04/21 05:48:31;;;;;;;7.90;5.45;;;6.90;99.90;;;;;;5075642;28;20017;-82
2022/04/21 05:50:56;;;;;;;13.95;5.32;;;6.90;99.90;;;;;;5073503;28;20495;-83
2022/04/21 05:53:24;;;;;;;9.13;5.13;;;6.90;99.90;;;;;;5074353;28;20036;-82
2022/04/21 05:55:51;;;;;;;13.63;5.15;;;7.00;99.90;;;;;;5075142;28;20033;-82
2022/04/21 05:58:18;;;;;;;12.00;4.85;;;7.00;99.90;;;;;;5073814;28;20032;-82
2022/04/21 06:00:44;;;;;;;7.32;4.35;;;7.00;99.90;;;;;;5074105;28;20028;-82
2022/04/21 06:03:13;;;;;;;9.27;4.68;;;7.10;99.90;;;;;;5055387;28;20035;-82
2022/04/21 06:05:39;;;;;;;11.60;5.68;;;7.10;99.90;;;;;;5046559;28;20480;-82
2022/04/21 06:08:07;;;;;;;10.52;4.70;;;7.20;99.90;;;;;;5075033;28;20102;-82
2022/04/21 06:10:36;;;;;;;19.35;4.78;;;7.10;99.90;;;;;;5073052;28;20043;-83
2022/04/21 06:13:03;;;;;;;8.75;5.05;;;7.10;99.90;;;;;;5074664;28;20056;-83
2022/04/21 06:15:30;;;;;;;13.38;5.40;;;7.10;99.90;;;;;;5063792;28;20036;-82
2022/04/21 06:17:58;;;;;;;9.30;5.15;;;7.10;99.90;;;;;;5054160;28;20033;-82
2022/04/21 06:20:26;;;;;;;8.80;4.82;;;7.10;99.90;;;;;;5056735;28;20166;-83
2022/04/21 06:22:51;;;;;;;8.45;4.97;;;7.10;99.90;;;;;;5056173;28;20055;-82
2022/04/21 06:25:17;;;;;;;10.85;5.00;;;7.20;99.90;;;;;;5055653;28;20033;-82
2022/04/21 06:27:44;;;;;;;18.63;5.82;;;7.20;99.90;;;;;;5072437;28;20021;-82
2022/04/21 06:30:10;;;;;;;7.97;4.78;;;7.20;99.90;;;;;;5054914;28;20519;-82
2022/04/21 06:32:36;;;;;;;14.13;5.50;;;7.30;99.90;;;;;;5058521;28;20071;-83
2022/04/21 06:35:04;;;;;;;14.93;5.43;;;7.30;99.90;;;;;;5054626;28;20356;-82
2022/04/21 06:37:30;;;;;;;11.65;6.15;;;7.40;99.90;;;;;;5059473;28;20098;-82
2022/04/21 06:39:57;;;;;;;10.95;5.28;;;7.30;99.90;;;;;;5072102;28;20426;-82
2022/04/21 06:42:23;;;;;;;15.80;5.60;;;7.30;99.90;;;;;;5073596;28;20115;-82
2022/04/21 06:50:22;;;;;;;10.05;5.72;;;7.20;99.90;;;;;;5074526;28;20113;-82
2022/04/21 06:52:48;;;;;;;15.93;6.10;;;7.10;99.90;;;;;;5056450;28;20027;-82
2022/04/21 06:55:15;;;;;;;11.13;5.72;;;7.20;99.90;;;;;;5053467;28;20021;-82
2022/04/21 06:57:43;;;;;;;19.75;5.85;;;7.20;99.90;;;;;;5054047;28;20032;-82
2022/04/21 07:00:09;;;;;;;10.90;5.82;;;7.20;99.90;;;;;;5069358;28;20025;-82
2022/04/21 07:02:38;;;;;;;17.38;5.95;;;7.20;99.90;;;;;;5054642;28;20017;-83
2022/04/21 07:05:11;;;;;;;19.73;5.68;;;7.20;99.90;;;;;;5072755;28;20099;-82
2022/04/21 07:07:41;;;;;;;17.25;4.90;;;7.20;99.90;;;;;;5056013;28;20025;-83
2022/04/21 07:10:07;;;;;;;17.00;5.35;;;7.20;99.90;;;;;;5073926;28;20029;-83
2022/04/21 07:12:33;;;;;;;11.23;5.55;;;7.20;99.90;;;;;;5066200;28;20089;-82
2022/04/21 07:15:07;;;;;;;13.32;5.22;;;7.20;99.90;;;;;;5072967;28;20035;-83
2022/04/21 07:17:34;;;;;;;12.18;5.40;;;7.20;99.90;;;;;;5055117;28;20031;-83
2022/04/21 07:20:03;;;;;;;12.13;5.78;;;7.20;99.90;;;;;;5071005;28;20536;-82
2022/04/21 07:22:28;;;;;;;12.25;5.18;;;7.30;99.90;;;;;;5052738;28;20108;-82
2022/04/21 07:24:58;;;;;;;16.65;5.80;;;7.30;99.90;;;;;;5072161;28;20140;-83
2022/04/21 07:27:24;;;;;;;12.00;5.18;;;7.30;99.90;;;;;;5069689;28;20020;-83
2022/04/21 07:29:51;;;;;;;9.85;5.07;;;7.30;99.90;;;;;;5052182;28;20457;-83
2022/04/21 07:32:17;;;;;;;13.55;5.82;;;7.30;99.90;;;;;;5052996;28;20128;-82
2022/04/21 07:34:44;;;;;;;7.43;5.07;;;7.30;99.90;;;;;;5069118;28;20025;-82
2022/04/21 07:37:10;;;;;;;15.68;6.25;;;7.30;99.90;;;;;;5073329;28;20507;-83
2022/04/21 07:39:37;;;;;;;18.02;6.05;;;7.30;99.90;;;;;;5072694;28;20024;-83
2022/04/21 07:42:05;;;;;;;7.13;5.15;;;7.50;99.90;;;;;;5071984;28;20025;-82
2022/04/21 07:44:31;;;;;;;14.88;5.85;;;7.40;99.90;;;;;;5072771;28;20024;-83
2022/04/21 07:46:58;;;;;;;19.48;6.13;;;7.40;99.90;;;;;;5059665;28;20082;-83
2022/04/21 07:54:52;;;;;;;10.23;5.70;;;7.50;99.90;;;;;;5068154;28;20545;-82
2022/04/21 07:57:18;;;;;;;17.67;7.05;;;7.50;99.90;;;;;;5072827;28;20021;-82
2022/04/21 07:59:44;;;;;;;12.15;6.22;;;7.50;99.90;;;;;;5053977;28;20025;-82
2022/04/21 08:02:16;;;;;;;9.65;5.40;;;7.50;99.90;;;;;;5072284;28;20451;-82
2022/04/21 08:04:43;;;;;;;16.00;7.25;;;7.50;99.90;;;;;;5072283;28;20472;-82
2022/04/21 08:07:10;;;;;;;17.48;6.15;;;7.50;99.90;;;;;;5062736;28;20049;-82
2022/04/21 08:09:35;;;;;;;11.32;5.43;;;7.60;99.90;;;;;;5068006;28;20548;-82
2022/04/21 08:12:01;;;;;;;11.30;6.15;;;7.60;99.90;;;;;;5052794;28;20100;-82
2022/04/21 08:14:28;;;;;;;13.20;5.28;;;7.70;99.90;;;;;;5054767;28;20025;-82
2022/04/21 08:16:54;;;;;;;19.10;7.53;;;7.70;99.90;;;;;;5072813;28;20082;-83
2022/04/21 08:19:20;;;;;;;18.02;6.93;;;7.70;99.90;;;;;;5051506;28;20036;-83
2022/04/21 08:21:47;;;;;;;14.15;6.20;;;7.70;99.90;;;;;;5052954;28;20476;-83
2022/04/21 08:32:33;;;;;;;14.05;6.22;;;8.00;99.90;;;;;;5052735;28;20055;-83
2022/04/21 08:35:01;;;;;;;12.65;6.00;;;8.00;99.90;;;;;;5068029;28;20033;-83
2022/04/21 08:37:30;;;;;;;12.52;6.57;;;8.00;99.90;;;;;;5068159;28;20087;-83
2022/04/21 08:39:55;;;;;;;16.85;6.50;;;8.10;99.90;;;;;;5040262;28;20025;-83
2022/04/21 08:42:23;;;;;;;16.58;6.43;;;8.10;99.90;;;;;;5054103;28;20013;-83
2022/04/21 08:44:50;;;;;;;12.73;6.15;;;8.00;99.90;;;;;;5072248;28;20020;-83
2022/04/21 08:47:19;;;;;;;14.43;6.45;;;8.00;99.90;;;;;;5070763;28;20020;-83
2022/04/21 08:49:54;;;;;;;18.88;6.93;;;8.00;99.90;;;;;;5072861;28;20029;-83
2022/04/21 08:52:20;;;;;;;14.82;6.97;;;8.10;99.90;;;;;;5072065;28;20074;-83
2022/04/21 08:54:47;;;;;;;14.63;7.18;;;8.20;99.90;;;;;;5072023;28;20029;-83
2022/04/21 08:57:13;;;;;;;16.00;6.40;;;8.30;99.90;;;;;;5072260;28;20060;-83
2022/04/21 08:59:45;;;;;;;17.92;7.15;;;8.30;99.90;;;;;;5072110;28;20083;-83
2022/04/21 09:02:11;;;;;;;20.17;7.28;;;8.40;99.90;;;;;;5051254;28;20031;-83
2022/04/21 09:04:42;;;;;;;13.02;6.28;;;8.40;99.90;;;;;;5046462;28;20020;-83
2022/04/21 09:07:15;;;;;;;13.05;6.53;;;8.40;99.90;;;;;;5072324;28;20023;-83
2022/04/21 09:10:07;;;;;;;14.55;6.60;;;8.40;99.90;;;;;;5071938;28;20104;-82
2022/04/21 09:12:34;;;;;;;19.98;8.35;;;8.50;99.90;;;;;;5071655;28;20078;-83
2022/04/21 09:15:15;;;;;;;18.92;7.32;;;8.50;99.90;;;;;;5071818;28;20051;-83
2022/04/21 09:17:47;;;;;;;14.13;6.68;;;8.60;99.90;;;;;;5070718;28;20412;-83
2022/04/21 09:20:17;;;;;;;15.30;7.60;;;8.60;99.90;;;;;;5051317;28;20036;-83
2022/04/21 09:23:10;;;;;;;12.38;7.30;;;8.70;99.90;;;;;;5056013;28;20021;-83
2022/04/21 09:25:51;;;;;;;12.45;7.70;;;8.70;99.90;;;;;;5059412;28;20021;-83
2022/04/21 09:28:31;;;;;;;16.67;6.15;;;8.80;99.90;;;;;;5069364;28;20024;-83
2022/04/21 09:31:00;;;;;;;14.60;7.68;;;8.80;99.90;;;;;;5068682;28;20024;-82
2022/04/21 09:33:30;;;;;;;12.77;6.88;;;8.80;99.90;;;;;;5031074;28;20061;-83
2022/04/21 09:35:57;;;;;;;13.13;6.72;;;8.90;99.90;;;;;;5032172;28;20128;-83
2022/04/21 09:38:23;;;;;;;19.52;7.63;;;8.90;99.90;;;;;;5050107;28;20033;-83
2022/04/21 09:40:49;;;;;;;22.88;7.57;;;8.90;99.90;;;;;;5050775;28;20025;-83
2022/04/21 09:43:29;;;;;;;15.80;7.32;;;9.00;99.90;;;;;;5044604;28;20025;-83
2022/04/21 09:46:17;;;;;;;11.48;6.40;;;9.00;99.90;;;;;;5034715;28;20466;-83
2022/04/21 09:48:44;;;;;;;13.77;7.53;;;9.00;99.90;;;;;;5031924;28;20049;-83
2022/04/21 09:51:14;;;;;;;24.55;9.20;;;9.10;99.90;;;;;;5053333;28;20036;-83
2022/04/21 09:53:49;;;;;;;19.88;7.95;;;9.00;99.90;;;;;;5055005;28;20052;-83
2022/04/21 09:56:16;;;;;;;10.48;6.63;;;9.10;99.90;;;;;;5055083;28;20086;-82
2022/04/21 09:58:43;;;;;;;16.33;7.35;;;9.20;99.90;;;;;;5054847;28;20025;-82
2022/04/21 10:01:10;;;;;;;15.93;7.03;;;9.10;99.90;;;;;;5048759;28;20018;-83
2022/04/21 10:03:39;;;;;;;16.30;7.88;;;9.10;99.90;;;;;;5047809;28;20029;-83
2022/04/21 10:06:13;;;;;;;19.40;7.80;;;9.20;99.90;;;;;;5052091;28;20083;-82
2022/04/21 10:08:42;;;;;;;12.27;7.13;;;9.30;99.90;;;;;;5040500;28;20059;-83
2022/04/21 10:11:09;;;;;;;17.13;8.13;;;9.30;99.90;;;;;;5054379;28;20472;-83
2022/04/21 10:13:35;;;;;;;18.42;8.10;;;9.30;99.90;;;;;;5054808;28;20533;-83
2022/04/21 10:16:02;;;;;;;19.77;9.15;;;9.30;99.90;;;;;;5053927;28;20025;-83
2022/04/21 10:18:28;;;;;;;24.98;8.45;;;9.30;99.90;;;;;;5054453;28;20021;-83
2022/04/21 10:20:56;;;;;;;14.07;7.97;;;9.30;99.90;;;;;;5054888;28;20082;-82
2022/04/21 10:23:23;;;;;;;19.00;9.05;;;9.30;99.90;;;;;;5054365;28;20108;-83
2022/04/21 10:26:09;;;;;;;14.40;8.55;;;9.30;99.90;;;;;;5053207;28;20025;-83
2022/04/21 10:28:40;;;;;;;18.50;7.85;;;9.30;99.90;;;;;;5053458;28;20061;-82
2022/04/21 10:31:35;;;;;;;13.88;7.45;;;9.40;99.90;;;;;;5054561;28;20029;-83
2022/04/21 10:34:07;;;;;;;14.45;8.63;;;9.30;99.90;;;;;;5033195;28;20037;-83
2022/04/21 10:36:41;;;;;;;17.50;7.75;;;9.40;99.90;;;;;;5034680;28;20359;-83
2022/04/21 10:39:26;;;;;;;19.77;9.02;;;9.40;99.90;;;;;;5034392;28;20021;-83
2022/04/21 10:42:15;;;;;;;15.87;8.20;;;9.40;99.90;;;;;;5034511;28;20087;-83
2022/04/21 10:44:51;;;;;;;11.60;7.10;;;9.40;99.90;;;;;;5033173;28;20022;-83
2022/04/21 10:47:39;;;;;;;20.52;8.88;;;9.40;99.90;;;;;;5028343;28;20018;-83
2022/04/21 10:50:12;;;;;;;18.77;8.90;;;9.50;99.90;;;;;;5033723;28;20034;-83
2022/04/21 10:57:58;;;;;;;18.55;8.90;;;9.50;99.90;;;;;;5015625;28;20080;-83
2022/04/21 11:00:29;;;;;;;14.77;8.18;;;9.50;99.90;;;;;;5013001;28;20367;-83
2022/04/21 11:03:06;;;;;;;14.90;8.45;;;9.50;99.90;;;;;;5013735;28;20033;-83
2022/04/21 11:05:36;;;;;;;22.13;9.63;;;9.50;99.90;;;;;;5028056;28;20493;-83
2022/04/21 11:08:13;;;;;;;22.52;10.43;;;9.60;99.90;;;;;;5018475;28;20101;-83
2022/04/21 11:10:43;;;;;;;17.52;10.15;;;9.70;99.90;;;;;;5018268;28;20056;-83
2022/04/21 11:13:19;;;;;;;18.65;9.73;;;9.70;99.90;;;;;;5014262;28;20478;-82
2022/04/21 11:15:45;;;;;;;;;;;9.70;99.90;;;;;;5020919;28;20021;-83
2022/04/21 11:18:12;;;;;;;;;;;9.70;99.90;;;;;;5033632;28;19905;-83
2022/04/21 11:20:43;;;;;;;21.27;10.40;;;9.70;99.90;;;;;;5033893;28;19932;-83
2022/04/21 11:23:31;;;;;;;17.73;9.23;;;9.80;99.90;;;;;;5017416;28;20025;-82
2022/04/21 11:26:04;;;;;;;15.65;9.25;;;9.70;99.90;;;;;;4983999;28;20034;-83
2022/04/21 11:28:31;;;;;;;15.13;8.93;;;9.70;99.90;;;;;;5027130;28;20033;-83
2022/04/21 11:30:58;;;;;;;17.75;9.10;;;9.70;99.90;;;;;;5018644;28;20030;-81
2022/04/21 11:33:24;;;;;;;18.08;9.32;;;9.70;99.90;;;;;;5054123;28;20040;-81
2022/04/21 11:36:07;;;;;;;16.83;9.05;;;9.70;99.90;;;;;;5073397;28;20037;-82
2022/04/21 11:38:34;;;;;;;17.92;10.02;;;9.70;99.90;;;;;;5072235;28;20041;-81
2022/04/21 11:41:06;;;;;;;19.17;10.82;;;9.80;99.90;;;;;;5052720;28;20028;-82
2022/04/21 11:43:32;;;;;;;17.55;10.57;;;9.90;99.90;;;;;;5072294;28;20028;-81
2022/04/21 11:45:59;;;;;;;24.17;11.15;;;10.00;99.90;;;;;;5053037;28;20055;-82
2022/04/21 11:48:40;;;;;;;14.20;9.05;;;10.00;99.90;;;;;;5072319;28;20024;-81
2022/04/21 11:51:06;;;;;;;18.42;10.38;;;10.00;99.90;;;;;;5071909;28;20091;-82
2022/04/21 11:53:36;;;;;;;21.23;9.80;;;10.00;99.90;;;;;;5070850;28;20086;-82
2022/04/21 11:56:09;;;;;;;17.17;9.80;;;10.00;99.90;;;;;;5069942;28;20036;-82
2022/04/21 11:58:38;;;;;;;16.73;10.13;;;10.00;99.90;;;;;;5063138;28;20029;-82
2022/04/21 12:06:57;;;;;;;15.77;9.48;;;10.00;99.90;;;;;;5065828;28;20028;-82
2022/04/21 12:09:27;;;;;;;18.83;9.80;;;10.00;99.90;;;;;;5060404;28;20100;-82
2022/04/21 12:11:54;;;;;;;16.88;10.40;;;10.00;99.90;;;;;;5071775;28;20103;-82
2022/04/21 12:14:21;;;;;;;17.92;10.07;;;9.90;99.90;;;;;;5071770;28;20556;-82
2022/04/21 12:16:54;;;;;;;21.33;9.57;;;10.00;99.90;;;;;;5053118;28;20051;-81
2022/04/21 12:19:39;;;;;;;21.63;10.00;;;10.00;99.90;;;;;;5054259;28;20035;-82
2022/04/21 12:22:10;;;;;;;19.30;10.63;;;10.00;99.90;;;;;;5070724;28;20056;-81
2022/04/21 12:24:37;;;;;;;18.48;10.35;;;10.00;99.90;;;;;;5071140;28;20029;-81
2022/04/21 12:27:05;;;;;;;18.27;10.05;;;10.00;99.90;;;;;;5059018;28;20100;-81
2022/04/21 12:29:44;;;;;;;18.83;10.32;;;10.00;99.90;;;;;;5065416;28;20025;-82
2022/04/21 12:32:10;;;;;;;25.13;9.98;;;9.90;99.90;;;;;;5072364;28;20047;-82
2022/04/21 12:34:40;;;;;;;24.20;10.80;;;9.90;99.90;;;;;;5071474;28;20025;-82
2022/04/21 12:37:08;;;;;;;19.92;11.20;;;9.80;99.90;;;;;;5068202;28;20021;-82
2022/04/21 12:39:33;;;;;;;27.23;11.80;;;9.80;99.90;;;;;;5072547;28;20422;-82
2022/04/21 12:42:03;;;;;;;21.98;10.93;;;9.80;99.90;;;;;;5069025;28;20032;-81
2022/04/21 12:44:29;;;;;;;23.33;10.88;;;9.90;99.90;;;;;;5071670;28;20027;-82
2022/04/21 12:47:02;;;;;;;19.95;10.23;;;9.80;99.90;;;;;;5060441;28;20033;-82
2022/04/21 12:49:54;;;;;;;15.35;9.77;;;9.80;99.90;;;;;;5057519;28;20025;-83
2022/04/21 12:52:46;;;;;;;29.35;13.43;;;9.80;99.90;;;;;;5052641;28;20079;-83
2022/04/21 12:55:21;;;;;;;26.98;11.90;;;9.80;99.90;;;;;;5063036;28;20075;-83
2022/04/21 12:58:05;;;;;;;18.70;10.63;;;9.90;99.90;;;;;;5066463;28;20048;-83
2022/04/21 13:00:32;;;;;;;31.05;11.93;;;9.80;99.90;;;;;;5072716;28;20032;-83
2022/04/21 13:03:01;;;;;;;20.88;11.15;;;9.90;99.90;;;;;;5071987;28;20109;-83
2022/04/21 13:05:27;;;;;;;17.27;10.45;;;9.90;99.90;;;;;;5072629;28;20028;-83
2022/04/21 13:07:54;;;;;;;17.35;10.35;;;9.90;99.90;;;;;;5053126;28;20038;-83
2022/04/21 13:10:21;;;;;;;18.63;10.30;;;9.90;99.90;;;;;;5071920;28;20034;-83
2022/04/21 13:12:52;;;;;;;22.13;10.38;;;9.90;99.90;;;;;;5071571;28;20465;-83
2022/04/21 13:15:18;;;;;;;18.38;10.50;;;9.90;99.90;;;;;;5071577;28;20047;-83
2022/04/21 13:17:44;;;;;;;23.08;9.13;;;9.90;99.90;;;;;;5064480;28;20036;-83
2022/04/21 13:20:10;;;;;;;16.50;9.27;;;9.90;99.90;;;;;;5071747;28;20035;-83
2022/04/21 13:22:37;;;;;;;16.48;8.85;;;9.90;99.90;;;;;;5055276;28;20036;-83
2022/04/21 13:25:03;;;;;;;18.08;9.35;;;9.80;99.90;;;;;;5071890;28;20330;-83
2022/04/21 13:27:29;;;;;;;20.27;9.77;;;9.80;99.90;;;;;;5057340;28;20036;-82
2022/04/21 13:29:55;;;;;;;16.05;7.53;;;9.80;99.90;;;;;;5057561;28;20048;-83
2022/04/21 13:35:06;;;;;;;15.93;9.10;;;9.80;99.90;;;;;;5076014;28;20553;-83
2022/04/21 13:37:32;;;;;;;24.85;10.25;;;9.80;99.90;;;;;;5057735;28;20017;-83
2022/04/21 13:39:59;;;;;;;18.33;9.70;;;9.80;99.90;;;;;;5075368;28;20431;-83
2022/04/21 13:42:25;;;;;;;16.25;9.35;;;9.80;99.90;;;;;;5067430;28;20033;-82
2022/04/21 13:44:56;;;;;;;21.25;9.13;;;9.80;99.90;;;;;;5065890;28;20403;-83
2022/04/21 13:47:22;;;;;;;15.73;9.52;;;9.90;99.90;;;;;;5056044;28;20428;-83
2022/04/21 13:49:47;;;;;;;21.75;10.40;;;9.90;99.90;;;;;;5075699;28;20017;-83